Latest Weather Observations for Glen Innes Airport

IDN60801

Issued at 10:04 pm EDT Monday 2 March 2015 (issued every 30 minutes, with the page automatically refreshed every 10 minutes)

About weather observations | Map of weather stations | Latest weather observations for NSW | Other Formats
Station Details ID: 056243 Name: GLEN INNES AIRPORT AWS Lat: -29.68 Lon: 151.69 Height: 1044.3 m
Data from the previous 72 hours. | See also: Recent months for locations in New South Wales
Date/Time
EDT
Temp
°C
App
Temp
°C
Dew
Point
Rel
Hum
%
Delta-T
°C
Wind Press
QNH
hPa
Press
MSL
hPa
Rain
since 9 am
mm
Dir
 
Spd
km/h
Gust
km/h
Spd
kts
Gust
kts
02/10:00pm 16.8 13.1 13.9 83 1.7 E 26 35 14 19 1020.6 1016.0 0.0
02/09:30pm 16.8 13.6 14.3 85 1.5 E 24 33 13 18 1020.3 1015.6 0.0
02/09:00pm 16.8 12.9 14.3 85 1.5 E 28 35 15 19 1020.0 1015.4 0.0
02/08:30pm 17.2 14.2 14.7 85 1.5 E 24 33 13 18 1019.6 1015.0 0.0
02/08:00pm 17.4 14.8 14.9 85 1.5 E 22 30 12 16 1018.9 1014.3 0.0
02/07:30pm 18.0 14.3 15.1 83 1.8 E 28 33 15 18 1018.4 1013.7 0.0
02/07:00pm 19.6 15.9 15.0 75 2.8 E 28 37 15 20 1018.1 1013.4 0.0
02/06:30pm 21.1 18.0 15.6 71 3.4 E 26 35 14 19 1017.6 1012.9 0.0
02/06:00pm 21.9 18.6 15.0 65 4.3 E 26 33 14 18 1017.3 1012.6 0.0
02/05:30pm 22.4 19.8 15.0 63 4.6 E 22 30 12 16 1017.2 1012.5 0.0
02/05:00pm 23.8 21.6 15.0 57 5.5 E 20 28 11 15 1017.0 1012.3 0.0
02/04:30pm 22.8 20.6 14.9 61 4.9 E 20 28 11 15 1017.1 1012.4 0.0
02/04:00pm 24.4 22.3 15.3 57 5.7 E 20 28 11 15 1016.8 1012.1 0.0
02/03:30pm 24.3 23.4 15.8 59 5.4 E 15 24 8 13 1017.2 1012.5 0.0
02/03:00pm 24.2 22.6 15.9 59 5.3 ENE 19 28 10 15 1017.4 1012.7 0.0
02/02:30pm 23.9 22.3 16.4 63 4.8 E 20 28 11 15 1017.9 1013.3 0.0
02/02:00pm 23.7 22.3 16.5 64 4.6 E 19 30 10 16 1018.3 1013.6 0.0
02/01:30pm 23.9 22.0 15.1 58 5.5 E 19 26 10 14 1018.6 1014.0 0.0
02/01:00pm 23.3 22.5 16.1 64 4.6 ESE 15 24 8 13 1018.8 1014.2 0.0
02/12:30pm 23.2 21.9 15.8 63 4.7 E 17 24 9 13 1019.1 1014.4 0.0
02/12:00pm 22.8 21.5 15.9 65 4.3 E 17 24 9 13 1019.4 1014.7 0.0
02/11:30am 22.3 20.5 15.6 66 4.2 E 19 26 10 14 1019.3 1014.6 0.0
02/11:00am 22.1 20.3 17.0 73 3.3 ESE 22 30 12 16 1019.5 1014.9 0.0
02/10:30am 21.4 18.7 15.7 70 3.6 E 24 33 13 18 1019.5 1014.9 0.0
02/10:00am 20.4 18.0 15.4 73 3.1 ESE 22 30 12 16 1019.4 1014.7 0.0
02/09:30am 19.6 16.5 15.5 77 2.5 ESE 26 32 14 17 1019.3 1014.6 0.0
02/09:00am 18.6 14.9 15.1 80 2.1 ESE 28 37 15 20 1018.7 1014.1 0.6
02/08:30am 17.4 14.2 14.3 82 1.9 ESE 24 33 13 18 1018.5 1013.8 0.6
02/08:00am 16.5 12.6 14.3 87 1.3 ESE 28 35 15 19 1018.2 1013.5 0.6
02/07:30am 15.5 12.9 13.7 89 1.1 ESE 20 26 11 14 1017.8 1013.2 0.6
02/07:00am 14.4 12.1 13.1 92 0.8 ESE 17 20 9 11 1017.5 1012.8 0.6
02/06:30am 14.5 12.2 12.9 90 0.9 ESE 17 24 9 13 1017.2 1012.5 0.6
02/06:00am 14.9 12.1 13.3 90 0.9 SE 20 26 11 14 1016.8 1012.1 0.6
02/05:30am 15.0 12.7 13.0 88 1.2 SE 17 26 9 14 1016.7 1012.0 0.6
02/05:00am 14.6 11.8 12.6 88 1.2 SE 19 22 10 12 1016.3 1011.6 0.6
02/04:30am 14.4 11.5 12.4 88 1.1 SE 19 24 10 13 1016.1 1011.4 0.6
02/04:00am 14.5 11.5 12.7 89 1.0 ESE 20 24 11 13 1016.3 1011.6 0.6
02/03:30am 14.0 13.4 12.4 90 0.9 SE 7 13 4 7 1016.0 1011.2 0.6
02/03:00am 14.4 12.9 13.0 91 0.8 SE 13 13 7 7 1015.8 1011.1 0.6
02/02:30am 14.4 13.1 12.6 89 1.0 SE 11 13 6 7 1015.8 1011.1 0.6
02/02:00am 15.4 13.6 13.2 87 1.3 ESE 15 19 8 10 1016.2 1011.5 0.6
02/01:30am 15.7 13.2 13.5 87 1.3 SE 19 24 10 13 1016.2 1011.5 0.6
02/01:00am 16.1 13.5 13.9 87 1.3 SE 20 28 11 15 1016.4 1011.7 0.6
02/12:30am 16.8 11.2 14.4 86 1.4 ESE 37 52 20 28 1016.7 1012.0 0.6
02/12:22am 17.9 14.3 15.2 84 1.7 SE 28 48 15 26 1016.5 1011.8 0.6
02/12:21am 18.2 14.7 15.5 84 1.7 SE 28 44 15 24 1016.4 1011.7 0.6
02/12:00am 18.2 16.8 16.9 92 0.8 ESE 20 26 11 14 1016.0 1011.2 0.6
 
Date/Time
EDT
Temp
°C
App
Temp
°C
Dew
Point
Rel
Hum
%
Delta-T
°C
Wind Press
QNH
hPa
Press
MSL
hPa
Rain
since 9 am
mm
Dir
 
Spd
km/h
Gust
km/h
Spd
kts
Gust
kts
01/11:30pm 17.8 18.9 17.0 95 0.5 ESE 7 9 4 5 1017.1 1012.4 0.0
01/11:00pm 16.6 16.6 15.3 92 0.8 SSE 9 9 5 5 1016.6 1011.9 0.0
01/10:30pm 17.3 18.1 15.8 91 0.9 ESE 6 9 3 5 1016.6 1011.9 0.0
01/10:00pm 17.5 17.8 16.0 91 0.9 E 9 13 5 7 1016.2 1011.5 0.0
01/09:30pm 18.5 19.3 16.3 87 1.4 W 7 7 4 4 1015.7 1011.0 0.0
01/09:00pm 19.0 20.1 16.6 86 1.5 W 6 7 3 4 1015.3 1010.6 0.0
01/08:30pm 19.5 20.8 16.2 81 2.1 SSE 4 7 2 4 1014.7 1010.0 0.0
01/08:00pm 20.4 22.5 16.2 77 2.6 CALM 0 4 0 2 1014.3 1009.6 0.0
01/07:30pm 21.9 22.9 16.4 71 3.5 SSW 6 7 3 4 1013.7 1009.0 0.0
01/07:00pm 23.5 24.5 16.8 66 4.3 W 7 11 4 6 1013.3 1008.5 0.0
01/06:30pm 24.0 23.6 16.3 62 4.9 W 13 19 7 10 1013.3 1008.5 0.0
01/06:00pm 23.5 23.0 17.0 67 4.2 W 15 20 8 11 1013.1 1008.3 0.0
01/05:30pm 24.1 23.1 16.6 63 4.8 W 17 22 9 12 1013.0 1008.2 0.0
01/05:00pm 23.8 22.5 17.3 67 4.2 WNW 20 26 11 14 1013.2 1008.4 0.0
01/04:30pm 24.4 23.6 17.9 67 4.2 W 19 24 10 13 1013.3 1008.5 0.0
01/04:00pm 23.8 22.6 17.5 68 4.1 WNW 20 26 11 14 1013.6 1008.9 0.0
01/03:30pm 22.8 21.4 17.0 70 3.7 W 20 28 11 15 1014.1 1009.3 0.0
01/03:00pm 23.1 21.8 17.3 70 3.7 WNW 20 26 11 14 1014.3 1009.6 0.0
01/02:30pm 23.1 21.5 16.4 66 4.3 NW 20 30 11 16 1014.4 1009.7 0.0
01/02:00pm 24.0 23.0 17.5 67 4.2 NW 19 24 10 13 1014.7 1010.0 0.0
01/01:30pm 23.7 22.4 17.2 67 4.2 NW 20 30 11 16 1015.1 1010.3 0.0
01/01:00pm 22.9 22.0 16.9 69 3.8 WNW 17 26 9 14 1015.4 1010.7 0.0
01/12:30pm 23.4 22.4 16.7 66 4.3 WNW 17 22 9 12 1015.6 1010.9 0.0
01/12:00pm 23.8 23.6 16.8 65 4.5 WNW 13 20 7 11 1015.8 1011.1 0.0
01/11:30am 24.0 23.4 17.5 67 4.2 WNW 17 28 9 15 1016.0 1011.2 0.0
01/11:00am 23.1 22.2 16.9 68 4.0 NW 17 22 9 12 1016.2 1011.5 0.0
01/10:30am 22.8 22.0 16.1 66 4.2 NNW 15 22 8 12 1016.2 1010.6 0.0
01/10:00am 21.6 21.6 16.3 72 3.3 NW 11 17 6 9 1016.1 1010.4 0.0
01/09:30am 20.7 21.3 15.9 74 3.0 N 7 11 4 6 1016.0 1010.3 0.0
01/09:00am 19.7 20.7 16.3 81 2.1 NNE 6 9 3 5 1015.7 1010.1 0.0
01/08:30am 19.0 19.9 16.2 84 1.8 ESE 6 9 3 5 1015.6 1010.0 0.0
01/08:00am 17.7 18.8 16.6 93 0.7 E 6 11 3 6 1015.3 1009.7 0.0
01/07:30am 15.7 16.1 15.2 97 0.3 SE 7 9 4 5 1015.2 1009.5 0.0
01/07:00am 14.2 14.2 13.6 96 0.4 SE 6 7 3 4 1015.0 1009.3 0.0
01/06:30am 13.9 13.2 13.1 95 0.5 SE 9 9 5 5 1014.8 1009.2 0.0
01/06:00am 14.2 13.9 13.4 95 0.5 SE 7 9 4 5 1014.5 1008.9 0.0
01/05:30am 14.5 14.3 13.7 95 0.5 SE 7 9 4 5 1014.4 1008.8 0.0
01/05:00am 14.4 14.2 13.6 95 0.5 SE 7 9 4 5 1014.3 1008.6 0.0
01/04:30am 14.2 13.5 13.2 94 0.6 SE 9 9 5 5 1014.0 1008.3 0.0
01/04:00am 15.1 14.8 14.3 95 0.5 SE 9 11 5 6 1014.2 1008.5 0.0
01/03:30am 14.9 14.1 13.9 94 0.6 ESE 11 11 6 6 1014.4 1008.8 0.0
01/03:00am 15.8 15.6 14.8 94 0.6 SE 9 11 5 6 1014.6 1009.0 0.0
01/02:30am 16.1 15.4 15.3 95 0.5 SE 13 15 7 8 1015.0 1009.3 0.0
01/02:00am 16.1 15.3 15.1 94 0.6 SE 13 15 7 8 1015.1 1009.4 0.0
01/01:30am 16.0 15.9 15.0 94 0.6 ESE 9 11 5 6 1015.5 1009.9 0.0
01/01:00am 16.2 17.5 15.1 93 0.7 ENE 2 7 1 4 1015.7 1010.1 0.0
01/12:30am 16.5 16.6 15.4 93 0.7 E 9 11 5 6 1015.6 1010.0 0.0
01/12:00am 17.1 16.6 16.0 93 0.7 E 13 15 7 8 1015.7 1010.1 0.0
 
Date/Time
EDT
Temp
°C
App
Temp
°C
Dew
Point
Rel
Hum
%
Delta-T
°C
Wind Press
QNH
hPa
Press
MSL
hPa
Rain
since 9 am
mm
Dir
 
Spd
km/h
Gust
km/h
Spd
kts
Gust
kts
28/11:30pm 16.7 15.7 15.6 93 0.7 ESE 15 15 8 8 1016.0 1010.3 0.0
28/11:00pm 17.2 17.3 15.5 90 1.0 ESE 9 13 5 7 1016.0 1010.3 0.0
28/10:30pm 17.6 17.1 15.8 89 1.1 SE 13 17 7 9 1015.7 1010.1 0.0
28/10:00pm 17.6 16.9 15.4 87 1.4 ESE 13 17 7 9 1015.6 1010.0 0.0
28/09:30pm 18.3 18.4 15.6 84 1.7 E 9 11 5 6 1015.5 1009.9 0.0
28/09:00pm 19.5 19.5 16.2 81 2.1 NE 11 17 6 9 1015.4 1009.8 0.0
28/08:30pm 20.3 20.4 16.5 79 2.4 NE 11 17 6 9 1015.0 1009.3 0.0
28/08:00pm 20.5 20.3 16.7 79 2.4 NE 13 15 7 8 1014.5 1008.9 0.0
28/07:30pm 20.9 21.1 16.7 77 2.7 NE 11 20 6 11 1014.2 1008.5 0.0
28/07:00pm 21.5 20.1 16.5 73 3.2 NE 19 26 10 14 1014.0 1008.3 0.0
28/06:30pm 23.3 22.7 17.5 70 3.8 NNW 17 20 9 11 1013.5 1007.9 0.0
28/06:00pm 23.5 23.6 15.5 60 5.0 WNW 9 13 5 7 1013.5 1007.9 0.0
28/05:30pm 23.5 23.1 16.1 63 4.7 WNW 13 15 7 8 1013.4 1007.7 0.0
28/05:00pm 23.7 22.9 16.2 63 4.8 NW 15 19 8 10 1013.1 1007.4 0.0
28/04:30pm 24.3 23.1 16.0 60 5.3 NW 17 24 9 13 1013.1 1007.4 0.0
28/04:00pm 25.3 24.3 16.7 59 5.5 NNW 17 20 9 11 1013.3 1007.6 0.0
28/03:30pm 24.6 23.3 15.8 58 5.6 NW 17 22 9 12 1013.5 1007.9 0.0
28/03:00pm 24.9 24.4 15.0 54 6.2 NW 11 17 6 9 1013.7 1008.1 0.0
28/02:30pm 24.8 23.8 14.6 53 6.4 NW 13 19 7 10 1014.1 1008.4 0.0
28/02:00pm 24.5 24.0 13.7 51 6.6 NNW 9 13 5 7 1014.3 1008.6 0.0
28/01:30pm 25.2 24.9 14.3 50 6.8 NW 9 17 5 9 1014.6 1009.0 0.0
28/01:00pm 24.6 25.6 16.3 60 5.3 N 6 9 3 5 1014.8 1009.2 0.0
28/12:30pm 24.3 24.5 14.7 55 6.0 NNW 7 11 4 6 1015.4 1009.8 0.0
28/12:00pm 23.1 24.7 15.9 64 4.5 NW 2 7 1 4 1015.5 1009.9 0.0
28/11:30am 22.5 23.0 14.9 62 4.7 SSW 6 11 3 6 1016.0 1010.3 0.0
28/11:00am 22.2 23.1 16.0 68 3.9 ESE 6 11 3 6 1016.1 1010.4 0.0
28/10:30am 21.5 22.4 16.2 72 3.3 ENE 6 9 3 5 1016.2 1010.6 0.0
28/10:00am 19.8 20.0 15.7 77 2.5 ESE 9 15 5 8 1016.3 1010.7 0.0
28/09:30am 19.1 18.9 15.6 80 2.2 E 11 15 6 8 1016.3 1010.7 0.0
28/09:00am 17.7 16.6 14.4 81 2.0 ESE 13 17 7 9 1016.2 1010.6 13.6
28/08:30am 17.5 16.3 15.0 85 1.5 ESE 15 17 8 9 1016.0 1010.3 13.6
28/08:00am 16.5 15.2 14.7 89 1.1 ESE 15 19 8 10 1016.0 1010.3 13.6
28/07:30am 15.6 14.6 14.5 93 0.7 ESE 13 15 7 8 1015.5 1009.9 13.6
28/07:00am 13.9 13.1 13.0 94 0.5 SE 9 11 5 6 1015.1 1009.4 13.6
28/06:30am 14.0 13.3 13.1 94 0.5 SE 9 11 5 6 1014.7 1009.1 13.6
28/06:00am 14.4 13.3 13.1 92 0.8 SE 11 13 6 7 1014.5 1008.9 13.6
28/05:30am 15.3 14.0 13.8 91 0.9 ESE 13 17 7 9 1014.3 1008.6 13.6
28/05:00am 16.1 14.8 14.8 92 0.8 ESE 15 19 8 10 1014.0 1008.3 13.6
28/04:30am 15.9 15.4 14.8 93 0.7 ESE 11 15 6 8 1014.1 1008.4 13.6
28/04:00am 15.3 15.5 14.3 94 0.6 ESE 6 15 3 8 1014.1 1008.4 13.6
28/03:30am 14.8 14.2 13.5 92 0.8 ESE 9 13 5 7 1014.0 1008.3 13.6
28/03:00am 15.4 13.9 14.3 93 0.7 SE 15 19 8 10 1014.3 1008.6 13.6
28/02:30am 15.2 14.0 13.9 92 0.8 ESE 13 15 7 8 1014.7 1009.1 13.6
28/02:00am 16.4 14.7 14.8 90 1.0 SE 17 19 9 10 1015.0 1009.3 13.6
28/01:30am 17.0 16.6 15.3 90 1.0 ESE 11 15 6 8 1015.3 1009.7 13.6
28/01:00am 17.0 16.2 15.2 89 1.1 E 13 19 7 10 1015.5 1009.9 13.6
28/12:30am 17.1 16.0 15.4 90 1.0 ESE 15 20 8 11 1015.3 1009.7 13.6
28/12:00am 17.3 16.3 15.6 90 1.0 E 15 24 8 13 1015.4 1009.8 13.6
 
Date/Time
EDT
Temp
°C
App
Temp
°C
Dew
Point
Rel
Hum
%
Delta-T
°C
Wind Press
QNH
hPa
Press
MSL
hPa
Rain
since 9 am
mm
Dir
 
Spd
km/h
Gust
km/h
Spd
kts
Gust
kts
27/11:30pm 17.4 16.1 15.9 91 0.9 E 17 24 9 13 1015.4 1009.8 13.6
27/11:00pm 17.3 16.1 16.0 92 0.8 ESE 17 20 9 11 1015.1 1009.4 13.6
27/10:30pm 17.4 16.5 15.9 91 0.9 ESE 15 19 8 10 1015.2 1009.5 13.6

Other Formats:

Comma delimited format used in spreadsheet applications
http://www.bom.gov.au/fwo/IDN60801/IDN60801.94588.axf

JavaScript Object Notation format (JSON) in row-major order
http://www.bom.gov.au/fwo/IDN60801/IDN60801.94588.json